createdAt,value
2022-11-04T00:00:09.082Z,99.63
2022-11-04T00:01:09.067Z,99.42
2022-11-04T00:02:09.013Z,99.63
2022-11-04T00:03:09.238Z,99.52
2022-11-04T00:04:08.961Z,99.42
2022-11-04T00:05:08.944Z,99.52
2022-11-04T00:06:08.943Z,99.52
2022-11-04T00:07:08.944Z,99.83
2022-11-04T00:08:08.914Z,99.83
2022-11-04T00:09:08.895Z,99.73
2022-11-04T00:10:08.883Z,99.73
2022-11-04T00:11:08.873Z,99.52
2022-11-04T00:12:08.876Z,99.42
2022-11-04T00:13:09.092Z,99.42
2022-11-04T00:14:08.843Z,99.32
2022-11-04T00:15:08.823Z,99.57
2022-11-04T00:16:08.824Z,99.67
2022-11-04T00:17:08.804Z,99.63
2022-11-04T00:18:08.813Z,99.52
2022-11-04T00:19:08.812Z,99.32
2022-11-04T00:20:08.836Z,99.32
2022-11-04T00:21:08.784Z,99.32
2022-11-04T00:22:08.764Z,99.22
2022-11-04T00:23:09.167Z,99.32
2022-11-04T00:24:08.753Z,99.22
2022-11-04T00:25:08.735Z,99.11
2022-11-04T00:26:08.705Z,99.77
2022-11-04T00:27:08.693Z,99.67
2022-11-04T00:28:09.073Z,99.77
2022-11-04T00:29:08.682Z,99.88
2022-11-04T00:30:08.683Z,99.88
2022-11-04T00:31:08.648Z,99.98
2022-11-04T00:32:08.643Z,99.77
2022-11-04T00:33:08.629Z,99.77
2022-11-04T00:34:08.614Z,99.57
2022-11-04T00:35:08.644Z,99.37
2022-11-04T00:36:08.595Z,99.47
2022-11-04T00:37:08.579Z,99.47
2022-11-04T00:38:08.799Z,99.88
2022-11-04T00:39:08.555Z,99.47
2022-11-04T00:40:08.544Z,99.88
2022-11-04T00:41:08.554Z,99.67
2022-11-04T00:42:08.522Z,99.99
2022-11-04T00:43:08.507Z,99.77
2022-11-04T00:44:08.502Z,99.37
2022-11-04T00:45:08.486Z,99.57
2022-11-04T00:46:08.475Z,99.99
2022-11-04T00:47:08.483Z,99.88
2022-11-04T00:48:08.709Z,99.77
2022-11-04T00:49:08.446Z,99.47
2022-11-04T00:50:08.425Z,99.57
2022-11-04T00:51:08.451Z,99.57
2022-11-04T00:52:08.419Z,99.77
2022-11-04T00:53:08.587Z,99.99
2022-11-04T00:54:08.397Z,99.99
2022-11-04T00:55:08.376Z,99.77
2022-11-04T00:56:08.364Z,99.88
2022-11-04T00:57:08.354Z,99.98
2022-11-04T00:58:08.344Z,99.99
2022-11-04T00:59:11.781Z,99.99
2022-11-04T01:00:09.315Z,99.77
2022-11-04T01:01:08.342Z,99.67
2022-11-04T01:02:08.441Z,99.88
2022-11-04T01:03:08.505Z,99.77
2022-11-04T01:04:08.277Z,99.99
2022-11-04T01:05:08.276Z,99.98
2022-11-04T01:06:08.246Z,99.99
2022-11-04T01:07:08.239Z,99.99
2022-11-04T01:08:08.225Z,99.99
2022-11-04T01:09:08.217Z,99.99
2022-11-04T01:10:08.216Z,99.99
2022-11-04T01:11:08.186Z,99.99
2022-11-04T01:12:08.176Z,99.99
2022-11-04T01:13:08.448Z,99.99
2022-11-04T01:14:08.155Z,99.99
2022-11-04T01:15:08.155Z,99.99
2022-11-04T01:16:08.146Z,99.99
2022-11-04T01:17:08.125Z,99.99
2022-11-04T01:18:08.283Z,99.99
2022-11-04T01:19:08.104Z,99.83
2022-11-04T01:20:08.083Z,99.57
2022-11-04T01:21:08.107Z,99.88
2022-11-04T01:22:08.055Z,99.57
2022-11-04T01:23:08.054Z,99.99
2022-11-04T01:24:08.046Z,99.67
2022-11-04T01:25:08.024Z,99.92
2022-11-04T01:26:08.015Z,99.99
2022-11-04T01:27:08.038Z,99.98
2022-11-04T01:28:08.245Z,99.92
2022-11-04T01:29:07.985Z,99.99
2022-11-04T01:30:07.965Z,99.99
2022-11-04T01:31:07.970Z,99.99
2022-11-04T01:32:07.955Z,99.99
2022-11-04T01:33:07.973Z,99.88
2022-11-04T01:34:07.925Z,99.88
2022-11-04T01:35:07.915Z,99.47
2022-11-04T01:36:07.905Z,98.96
2022-11-04T01:37:07.898Z,98.70
2022-11-04T01:38:08.142Z,98.86
2022-11-04T01:39:07.917Z,98.55
2022-11-04T01:40:07.855Z,98.35
2022-11-04T01:41:07.847Z,98.25
2022-11-04T01:42:07.839Z,97.94
2022-11-04T01:43:08.109Z,97.99
2022-11-04T01:44:07.813Z,98.09
2022-11-04T01:45:07.818Z,97.89
2022-11-04T01:46:07.785Z,97.58
2022-11-04T01:47:07.781Z,97.38
2022-11-04T01:48:07.766Z,97.07
2022-11-04T01:49:07.755Z,96.77
2022-11-04T01:50:07.768Z,96.67
2022-11-04T01:51:07.735Z,96.26
2022-11-04T01:52:07.730Z,96.15
2022-11-04T01:53:07.987Z,96.56
2022-11-04T01:54:07.695Z,96.71
2022-11-04T01:55:07.686Z,96.67
2022-11-04T01:56:07.686Z,96.36
2022-11-04T01:57:08.767Z,96.15
2022-11-04T01:58:07.646Z,95.95
2022-11-04T01:59:07.648Z,96.06
2022-11-04T02:00:07.625Z,95.95
2022-11-04T02:01:07.688Z,96.06
2022-11-04T02:02:07.688Z,95.65
2022-11-04T02:03:08.017Z,95.45
2022-11-04T02:04:07.586Z,95.54
2022-11-04T02:05:07.624Z,94.93
2022-11-04T02:06:07.562Z,95.04
2022-11-04T02:07:07.577Z,93.62
2022-11-04T02:08:07.533Z,94.23
2022-11-04T02:09:07.526Z,93.01
2022-11-04T02:10:07.513Z,92.60
2022-11-04T02:11:07.506Z,92.19
2022-11-04T02:12:07.488Z,91.68
2022-11-04T02:13:07.637Z,91.88
2022-11-04T02:14:07.465Z,91.58
2022-11-04T02:15:07.466Z,91.03
2022-11-04T02:16:07.445Z,90.86
2022-11-04T02:17:07.435Z,90.46
2022-11-04T02:18:07.437Z,90.36
2022-11-04T02:19:07.415Z,89.95
2022-11-04T02:20:07.399Z,89.79
2022-11-04T02:21:07.386Z,90.30
2022-11-04T02:22:07.376Z,90.16
2022-11-04T02:23:07.641Z,90.46
2022-11-04T02:24:07.384Z,90.36
2022-11-04T02:25:07.346Z,89.75
2022-11-04T02:26:07.345Z,89.64
2022-11-04T02:27:07.316Z,89.75
2022-11-04T02:28:07.309Z,89.95
2022-11-04T02:29:07.296Z,89.95
2022-11-04T02:30:07.307Z,90.25
2022-11-04T02:31:07.278Z,90.30
2022-11-04T02:32:07.256Z,90.70
2022-11-04T02:33:07.441Z,90.30
2022-11-04T02:34:07.236Z,91.11
2022-11-04T02:35:07.226Z,90.75
2022-11-04T02:36:07.348Z,91.36
2022-11-04T02:37:07.206Z,90.85
2022-11-04T02:38:07.196Z,91.56
2022-11-04T02:39:07.189Z,91.36
2022-11-04T02:40:07.169Z,91.26
2022-11-04T02:41:07.188Z,91.05
2022-11-04T02:42:07.149Z,90.34
2022-11-04T02:43:07.624Z,89.83
2022-11-04T02:44:07.126Z,89.22
2022-11-04T02:45:07.116Z,88.92
2022-11-04T02:46:07.096Z,88.71
2022-11-04T02:47:07.129Z,88.71
2022-11-04T02:48:07.078Z,88.20
2022-11-04T02:49:07.067Z,89.32
2022-11-04T02:50:07.059Z,89.22
2022-11-04T02:51:07.047Z,88.67
2022-11-04T02:52:07.037Z,88.16
2022-11-04T02:53:07.353Z,88.36
2022-11-04T02:54:07.007Z,89.22
2022-11-04T02:55:06.997Z,88.71
2022-11-04T02:56:06.989Z,88.10
2022-11-04T02:57:06.976Z,88.31
2022-11-04T02:58:06.965Z,87.38
2022-11-04T02:59:06.976Z,88.20
2022-11-04T03:00:06.937Z,88.51
2022-11-04T03:01:07.003Z,88.00
2022-11-04T03:02:06.997Z,88.20
2022-11-04T03:03:07.266Z,89.26
2022-11-04T03:04:06.888Z,89.47
2022-11-04T03:05:06.896Z,89.77
2022-11-04T03:06:06.867Z,90.28
2022-11-04T03:07:06.913Z,90.63
2022-11-04T03:08:07.094Z,90.83
2022-11-04T03:09:06.836Z,91.14
2022-11-04T03:10:06.849Z,91.24
2022-11-04T03:11:06.816Z,91.35
2022-11-04T03:12:06.797Z,91.55
2022-11-04T03:13:06.787Z,91.75
2022-11-04T03:14:06.777Z,91.65
2022-11-04T03:15:06.767Z,91.44
2022-11-04T03:16:06.779Z,91.55
2022-11-04T03:17:06.747Z,91.35
2022-11-04T03:18:06.967Z,91.39
2022-11-04T03:19:06.729Z,91.89
2022-11-04T03:20:06.707Z,93.32
2022-11-04T03:21:06.697Z,93.52
2022-11-04T03:22:06.712Z,93.52
2022-11-04T03:23:06.675Z,94.14
2022-11-04T03:24:06.658Z,94.24
2022-11-04T03:25:06.656Z,94.04
2022-11-04T03:26:06.637Z,94.14
2022-11-04T03:27:06.627Z,94.29
2022-11-04T03:28:07.103Z,94.90
2022-11-04T03:29:06.607Z,94.90
2022-11-04T03:30:06.712Z,95.41
2022-11-04T03:31:06.586Z,95.72
2022-11-04T03:32:06.568Z,95.31
2022-11-04T03:33:06.861Z,95.00
2022-11-04T03:34:06.577Z,95.00
2022-11-04T03:35:06.536Z,94.64
2022-11-04T03:36:06.527Z,95.86
2022-11-04T03:37:06.520Z,96.47
2022-11-04T03:38:06.501Z,95.96
2022-11-04T03:39:06.496Z,95.86
2022-11-04T03:40:06.506Z,95.65
2022-11-04T03:41:06.466Z,95.65
2022-11-04T03:42:06.456Z,95.56
2022-11-04T03:43:06.686Z,95.35
2022-11-04T03:44:06.436Z,95.25
2022-11-04T03:45:06.427Z,94.94
2022-11-04T03:46:06.438Z,95.45
2022-11-04T03:47:06.407Z,95.96
2022-11-04T03:48:06.388Z,96.47
2022-11-04T03:49:06.388Z,96.78
2022-11-04T03:50:06.365Z,96.98
2022-11-04T03:51:06.356Z,96.06
2022-11-04T03:52:06.367Z,95.56
2022-11-04T03:53:06.653Z,95.56
2022-11-04T03:54:06.319Z,95.00
2022-11-04T03:55:06.307Z,94.08
2022-11-04T03:56:06.300Z,94.08
2022-11-04T03:57:06.287Z,93.16
2022-11-04T03:58:06.397Z,92.96
2022-11-04T03:59:06.268Z,93.67
2022-11-04T04:00:06.246Z,92.96
2022-11-04T04:01:06.306Z,92.55
2022-11-04T04:02:06.340Z,92.24
2022-11-04T04:03:06.217Z,92.24
2022-11-04T04:04:06.219Z,92.14
2022-11-04T04:05:06.201Z,92.04
2022-11-04T04:06:06.177Z,91.94
2022-11-04T04:07:06.167Z,92.24
2022-11-04T04:08:06.521Z,92.49
2022-11-04T04:09:06.166Z,92.69
2022-11-04T04:10:06.146Z,92.90
2022-11-04T04:11:06.126Z,93.05
2022-11-04T04:12:06.107Z,92.94
2022-11-04T04:13:06.106Z,93.66
2022-11-04T04:14:06.086Z,94.07
2022-11-04T04:15:06.099Z,93.86
2022-11-04T04:16:06.068Z,93.55
2022-11-04T04:17:06.103Z,93.25
2022-11-04T04:18:06.233Z,93.21
2022-11-04T04:19:06.036Z,92.80
2022-11-04T04:20:06.038Z,93.66
2022-11-04T04:21:06.006Z,93.66
2022-11-04T04:22:05.997Z,93.15
2022-11-04T04:23:05.986Z,92.84
2022-11-04T04:24:05.980Z,92.23
2022-11-04T04:25:05.966Z,92.13
2022-11-04T04:26:05.986Z,91.82
2022-11-04T04:27:05.945Z,91.41
2022-11-04T04:28:06.086Z,91.00
2022-11-04T04:29:05.916Z,90.80
2022-11-04T04:30:05.905Z,91.00
2022-11-04T04:31:05.897Z,90.80
2022-11-04T04:32:05.914Z,90.49
2022-11-04T04:33:05.879Z,90.39
2022-11-04T04:34:05.989Z,90.19
2022-11-04T04:35:05.916Z,90.90
2022-11-04T04:36:05.835Z,91.11
2022-11-04T04:37:05.826Z,90.90
2022-11-04T04:38:06.164Z,90.90
2022-11-04T04:39:05.807Z,90.70
2022-11-04T04:40:05.795Z,90.39
2022-11-04T04:41:05.790Z,90.29
2022-11-04T04:42:05.767Z,90.19
2022-11-04T04:43:05.989Z,90.29
2022-11-04T04:44:05.766Z,90.23
2022-11-04T04:45:05.736Z,90.43
2022-11-04T04:46:05.725Z,91.25
2022-11-04T04:47:05.716Z,92.42
2022-11-04T04:48:05.696Z,92.62
2022-11-04T04:49:05.694Z,92.93
2022-11-04T04:50:05.687Z,93.24
2022-11-04T04:51:05.666Z,93.03
2022-11-04T04:52:05.658Z,92.72
2022-11-04T04:53:05.935Z,92.83
2022-11-04T04:54:05.627Z,92.83
2022-11-04T04:55:05.646Z,92.83
2022-11-04T04:56:05.606Z,92.56
2022-11-04T04:57:05.607Z,93.28
2022-11-04T04:58:05.597Z,93.89
2022-11-04T04:59:05.575Z,93.59
2022-11-04T05:00:05.566Z,93.69
2022-11-04T05:01:05.638Z,94.81
2022-11-04T05:02:05.674Z,94.81
2022-11-04T05:03:05.696Z,95.02
2022-11-04T05:04:05.516Z,94.51
2022-11-04T05:05:05.543Z,94.14
2022-11-04T05:06:05.502Z,93.52
2022-11-04T05:07:05.506Z,93.93
2022-11-04T05:08:05.712Z,93.84
2022-11-04T05:09:05.457Z,94.49
2022-11-04T05:10:05.456Z,95.41
2022-11-04T05:11:05.437Z,95.62
2022-11-04T05:12:05.454Z,96.23
2022-11-04T05:13:05.415Z,96.39
2022-11-04T05:14:05.408Z,96.03
2022-11-04T05:15:05.395Z,97.05
2022-11-04T05:16:05.389Z,97.52
2022-11-04T05:17:05.366Z,97.82
2022-11-04T05:18:05.509Z,98.13
2022-11-04T05:19:05.348Z,97.92
2022-11-04T05:20:05.336Z,98.85
2022-11-04T05:21:05.329Z,99.15
2022-11-04T05:22:05.316Z,99.56
2022-11-04T05:23:05.305Z,99.87
2022-11-04T05:24:05.315Z,99.99
2022-11-04T05:25:05.282Z,99.99
2022-11-04T05:26:05.276Z,99.99
2022-11-04T05:27:05.258Z,99.99
2022-11-04T05:28:05.432Z,99.99
2022-11-04T05:29:05.322Z,99.98
2022-11-04T05:30:05.235Z,99.99
2022-11-04T05:31:05.229Z,99.99
2022-11-04T05:32:05.206Z,99.99
2022-11-04T05:33:05.513Z,99.62
2022-11-04T05:34:05.186Z,99.41
2022-11-04T05:35:05.206Z,99.99
2022-11-04T05:36:05.156Z,99.72
2022-11-04T05:37:05.145Z,99.41
2022-11-04T05:38:05.135Z,99.21
2022-11-04T05:39:05.126Z,98.70
2022-11-04T05:40:05.115Z,98.80
2022-11-04T05:41:05.115Z,98.29
2022-11-04T05:42:05.136Z,98.60
2022-11-04T05:43:05.089Z,98.49
2022-11-04T05:44:05.082Z,98.80
2022-11-04T05:45:05.055Z,99.31
2022-11-04T05:46:05.065Z,99.31
2022-11-04T05:47:05.035Z,99.31
2022-11-04T05:48:05.028Z,99.41
2022-11-04T05:49:05.018Z,99.56
2022-11-04T05:50:05.007Z,99.66
2022-11-04T05:51:04.985Z,99.82
2022-11-04T05:52:12.076Z,99.62
2022-11-04T05:53:04.967Z,99.52
2022-11-04T05:54:04.956Z,99.46
2022-11-04T05:55:04.949Z,99.56
2022-11-04T05:56:04.936Z,99.87
2022-11-04T05:57:04.926Z,99.46
2022-11-04T05:58:04.936Z,99.46
2022-11-04T05:59:04.896Z,99.56
2022-11-04T06:00:04.889Z,99.46
2022-11-04T06:01:04.876Z,99.56
2022-11-04T06:02:04.977Z,99.36
2022-11-04T06:03:04.911Z,99.36
2022-11-04T06:04:04.875Z,99.15
2022-11-04T06:05:04.829Z,99.15
2022-11-04T06:06:04.826Z,98.95
2022-11-04T06:07:04.806Z,99.15
2022-11-04T06:08:04.797Z,99.26
2022-11-04T06:09:04.783Z,99.15
2022-11-04T06:10:04.796Z,99.26
2022-11-04T06:11:04.764Z,99.15
2022-11-04T06:12:04.754Z,98.49
2022-11-04T06:13:04.775Z,98.44
2022-11-04T06:14:04.739Z,98.33
2022-11-04T06:15:04.715Z,98.65
2022-11-04T06:16:04.726Z,98.19
2022-11-04T06:17:04.740Z,97.78
2022-11-04T06:18:04.686Z,97.47
2022-11-04T06:19:09.586Z,98.08
2022-11-04T06:20:05.664Z,98.74
2022-11-04T06:21:04.645Z,99.05
2022-11-04T06:22:04.676Z,98.85
2022-11-04T06:23:04.627Z,99.11
2022-11-04T06:24:04.636Z,98.49
2022-11-04T06:25:04.606Z,98.19
2022-11-04T06:26:04.595Z,98.29
2022-11-04T06:27:04.596Z,98.08
2022-11-04T06:28:04.574Z,98.19
2022-11-04T06:29:04.569Z,97.98
2022-11-04T06:30:04.547Z,98.08
2022-11-04T06:31:04.537Z,97.37
2022-11-04T06:32:04.525Z,97.22
2022-11-04T06:33:04.536Z,97.16
2022-11-04T06:34:04.518Z,97.37
2022-11-04T06:35:04.493Z,97.27
2022-11-04T06:36:04.484Z,97.37
2022-11-04T06:37:04.466Z,97.47
2022-11-04T06:38:04.466Z,97.67
2022-11-04T06:39:05.062Z,97.47
2022-11-04T06:40:04.489Z,98.24
2022-11-04T06:42:04.427Z,98.70
2022-11-04T06:43:04.632Z,98.08
2022-11-04T06:44:04.443Z,98.33
2022-11-04T06:45:04.430Z,98.54
2022-11-04T06:46:04.584Z,98.54
2022-11-04T06:47:04.370Z,98.95
2022-11-04T06:48:04.376Z,98.29
2022-11-04T06:49:04.333Z,98.39
2022-11-04T06:50:04.365Z,97.88
2022-11-04T06:51:04.335Z,97.78
2022-11-04T06:52:04.314Z,97.57
2022-11-04T06:53:04.299Z,97.88
2022-11-04T06:54:04.292Z,98.24
2022-11-04T06:55:04.344Z,99.05
2022-11-04T06:56:04.319Z,98.39
2022-11-04T06:57:04.397Z,98.39
2022-11-04T06:58:04.319Z,98.24
2022-11-04T06:59:04.243Z,98.44
2022-11-04T07:00:04.220Z,98.19
2022-11-04T07:01:09.234Z,97.78
2022-11-04T07:02:05.339Z,97.06
2022-11-04T07:03:04.186Z,97.78
2022-11-04T07:04:04.177Z,97.47
2022-11-04T07:05:04.167Z,96.92
2022-11-04T07:06:04.155Z,96.71
2022-11-04T07:07:04.148Z,96.71
2022-11-04T07:08:04.184Z,97.16
2022-11-04T07:09:04.136Z,97.16
2022-11-04T07:10:04.114Z,96.96
2022-11-04T07:11:04.119Z,97.37
2022-11-04T07:12:04.099Z,97.33
2022-11-04T07:13:04.064Z,96.71
2022-11-04T07:14:04.077Z,96.41
2022-11-04T07:15:04.043Z,96.51
2022-11-04T07:16:04.056Z,96.10
2022-11-04T07:17:04.015Z,95.89
2022-11-04T07:18:04.016Z,96.00
2022-11-04T07:19:04.013Z,96.10
2022-11-04T07:20:04.015Z,96.41
2022-11-04T07:21:07.181Z,96.61
2022-11-04T07:22:04.985Z,95.95
2022-11-04T07:23:03.970Z,95.79
2022-11-04T07:24:03.967Z,96.20
2022-11-04T07:25:03.938Z,96.51
2022-11-04T07:26:03.952Z,96.87
2022-11-04T07:27:03.957Z,96.26
2022-11-04T07:28:03.915Z,95.75
2022-11-04T07:29:03.914Z,96.05
2022-11-04T07:30:04.005Z,96.05
2022-11-04T07:31:03.914Z,95.70
2022-11-04T07:32:03.855Z,95.29
2022-11-04T07:33:03.843Z,95.50
2022-11-04T07:34:03.836Z,95.80
2022-11-04T07:35:03.835Z,94.89
2022-11-04T07:36:03.838Z,95.39
2022-11-04T07:37:03.825Z,95.60
2022-11-04T07:38:03.819Z,95.60
2022-11-04T07:39:03.780Z,95.19
2022-11-04T07:40:03.781Z,95.25
2022-11-04T07:41:03.744Z,95.35
2022-11-04T07:42:03.736Z,94.53
2022-11-04T07:43:03.749Z,94.33
2022-11-04T07:44:03.716Z,93.88
2022-11-04T07:45:03.714Z,93.77
2022-11-04T07:46:03.707Z,93.47
2022-11-04T07:47:03.684Z,93.37
2022-11-04T07:48:03.668Z,93.02
2022-11-04T07:49:03.674Z,92.81
2022-11-04T07:50:08.130Z,92.71
2022-11-04T07:51:04.656Z,91.89
2022-11-04T07:52:03.640Z,91.79
2022-11-04T07:53:03.607Z,91.44
2022-11-04T07:54:03.633Z,90.83
2022-11-04T07:55:03.626Z,90.53
2022-11-04T07:56:03.588Z,89.71
2022-11-04T07:57:03.563Z,89.61
2022-11-04T07:58:03.564Z,89.30
2022-11-04T07:59:03.575Z,89.61
2022-11-04T08:00:03.536Z,89.30
2022-11-04T08:01:03.568Z,89.20
2022-11-04T08:02:03.589Z,89.40
2022-11-04T08:03:03.596Z,89.51
2022-11-04T08:04:03.493Z,89.55
2022-11-04T08:05:03.464Z,90.36
2022-11-04T08:06:03.475Z,91.14
2022-11-04T08:07:03.475Z,91.55
2022-11-04T08:08:03.457Z,90.63
2022-11-04T08:09:03.491Z,89.77
2022-11-04T08:10:03.447Z,89.77
2022-11-04T08:11:03.404Z,89.97
2022-11-04T08:12:03.395Z,90.38
2022-11-04T08:13:03.397Z,89.57
2022-11-04T08:14:03.373Z,88.75
2022-11-04T08:15:03.366Z,89.12
2022-11-04T08:16:03.356Z,89.32
2022-11-04T08:17:03.334Z,89.32
2022-11-04T08:18:03.354Z,88.71
2022-11-04T08:19:03.336Z,88.40
2022-11-04T08:20:03.323Z,87.08
2022-11-04T08:21:03.285Z,87.18
2022-11-04T08:22:03.279Z,87.90
2022-11-04T08:23:03.266Z,88.92
2022-11-04T08:24:03.288Z,89.83
2022-11-04T08:25:03.276Z,90.03
2022-11-04T08:26:03.259Z,89.73
2022-11-04T08:27:03.225Z,88.81
2022-11-04T08:28:03.275Z,88.81
2022-11-04T08:29:03.194Z,89.73
2022-11-04T08:30:03.262Z,90.44
2022-11-04T08:31:03.183Z,91.26
2022-11-04T08:32:03.177Z,91.56
2022-11-04T08:33:03.145Z,91.77
2022-11-04T08:34:03.167Z,91.31
2022-11-04T08:35:03.164Z,91.42
2022-11-04T08:36:03.118Z,91.11
2022-11-04T08:37:03.111Z,91.52
2022-11-04T08:38:03.104Z,91.52
2022-11-04T08:39:08.994Z,91.11
2022-11-04T08:40:04.107Z,89.32
2022-11-04T08:41:03.093Z,89.47
2022-11-04T08:42:03.070Z,90.89
2022-11-04T08:43:03.048Z,90.89
2022-11-04T08:44:03.036Z,90.69
2022-11-04T08:45:03.015Z,91.03
2022-11-04T08:46:03.038Z,91.30
2022-11-04T08:47:02.997Z,91.50
2022-11-04T08:48:05.441Z,90.69
2022-11-04T08:49:07.046Z,90.48
2022-11-04T08:50:03.968Z,90.89
2022-11-04T08:51:03.029Z,90.85
2022-11-04T08:52:02.960Z,90.03
2022-11-04T08:53:02.924Z,89.73
2022-11-04T08:54:02.926Z,89.01
2022-11-04T08:55:02.908Z,90.14
2022-11-04T08:56:02.895Z,89.94
2022-11-04T08:57:02.890Z,89.42
2022-11-04T08:58:02.880Z,89.63
2022-11-04T08:59:02.856Z,89.12
2022-11-04T09:00:02.902Z,89.28
2022-11-04T09:01:02.859Z,88.36
2022-11-04T09:02:02.951Z,89.18
2022-11-04T09:03:02.810Z,88.67
2022-11-04T09:04:02.870Z,89.07
2022-11-04T09:05:02.797Z,88.73
2022-11-04T09:06:02.790Z,87.41
2022-11-04T09:07:07.872Z,88.22
2022-11-04T09:08:03.778Z,88.93
2022-11-04T09:09:02.761Z,86.90
2022-11-04T09:10:02.749Z,87.14
2022-11-04T09:11:02.716Z,87.55
2022-11-04T09:12:02.708Z,88.57
2022-11-04T09:13:02.712Z,87.71
2022-11-04T09:14:02.716Z,87.06
2022-11-04T09:15:02.678Z,87.06
2022-11-04T09:16:02.670Z,86.61
2022-11-04T09:17:02.675Z,87.12
2022-11-04T09:18:02.659Z,86.92
2022-11-04T09:19:02.628Z,85.39
2022-11-04T09:20:02.636Z,86.10
2022-11-04T09:21:02.637Z,85.39
2022-11-04T09:22:02.601Z,85.19
2022-11-04T09:23:02.594Z,86.25
2022-11-04T09:24:02.578Z,85.80
2022-11-04T09:25:02.558Z,85.64
2022-11-04T09:26:02.567Z,85.64
2022-11-04T09:27:02.549Z,85.94
2022-11-04T09:28:02.519Z,86.69
2022-11-04T09:29:02.523Z,88.89
2022-11-04T09:30:02.527Z,86.96
2022-11-04T09:31:02.498Z,86.45
2022-11-04T09:32:02.514Z,87.16
2022-11-04T09:33:02.479Z,86.86
2022-11-04T09:34:02.456Z,86.04
2022-11-04T09:35:02.446Z,85.33
2022-11-04T09:36:02.431Z,87.47
2022-11-04T09:37:02.420Z,86.15
2022-11-04T09:38:02.427Z,86.21
2022-11-04T09:39:02.404Z,85.13
2022-11-04T09:40:02.397Z,86.00
2022-11-04T09:41:02.394Z,83.76
2022-11-04T09:42:02.359Z,84.88
2022-11-04T09:43:02.378Z,84.64
2022-11-04T09:44:02.355Z,83.93
2022-11-04T09:45:21.580Z,82.10
2022-11-04T09:46:03.332Z,81.70
2022-11-04T09:47:02.326Z,81.59
2022-11-04T09:48:02.299Z,83.62
2022-11-04T09:49:02.300Z,81.90
2022-11-04T09:50:02.279Z,82.18
2022-11-04T09:51:02.309Z,84.11
2022-11-04T09:52:02.252Z,85.09
2022-11-04T09:53:02.266Z,83.36
2022-11-04T09:54:02.245Z,84.13
2022-11-04T09:55:02.274Z,84.03
2022-11-04T09:56:02.218Z,82.98
2022-11-04T09:57:02.198Z,82.84
2022-11-04T09:58:02.340Z,79.99
2022-11-04T09:59:02.171Z,79.08
2022-11-04T10:00:02.240Z,79.75
2022-11-04T10:01:02.188Z,79.96
2022-11-04T10:02:02.192Z,78.57
2022-11-04T10:03:02.119Z,80.71
2022-11-04T10:04:02.116Z,80.60
2022-11-04T10:05:02.099Z,80.60
2022-11-04T10:06:02.103Z,79.75
2022-11-04T10:07:02.077Z,79.21
2022-11-04T10:08:02.059Z,78.33
2022-11-04T10:09:02.048Z,78.57
2022-11-04T10:10:02.054Z,79.99
2022-11-04T10:11:02.068Z,79.66
2022-11-04T10:12:02.041Z,81.39
2022-11-04T10:13:02.024Z,82.57
2022-11-04T10:14:01.991Z,81.66
2022-11-04T10:15:01.982Z,81.86
2022-11-04T10:16:01.985Z,81.92
2022-11-04T10:17:01.990Z,80.80
2022-11-04T10:18:01.961Z,80.19
2022-11-04T10:19:02.041Z,80.16
2022-11-04T10:20:01.919Z,78.64
2022-11-04T10:21:01.924Z,77.93
2022-11-04T10:22:01.905Z,77.93
2022-11-04T10:23:01.917Z,77.28
2022-11-04T10:24:01.880Z,78.19
2022-11-04T10:25:01.871Z,77.99
2022-11-04T10:26:01.860Z,78.88
2022-11-04T10:27:01.850Z,78.78
2022-11-04T10:28:01.845Z,80.30
2022-11-04T10:29:01.883Z,79.18
2022-11-04T10:30:01.811Z,79.52
2022-11-04T10:31:01.800Z,79.63
2022-11-04T10:32:01.791Z,80.44
2022-11-04T10:33:01.781Z,80.13
2022-11-04T10:34:01.762Z,80.71
2022-11-04T10:35:01.793Z,80.10
2022-11-04T10:36:01.740Z,79.45
2022-11-04T10:37:01.730Z,78.98
2022-11-04T10:38:01.733Z,79.90
2022-11-04T10:39:01.720Z,79.35
2022-11-04T10:40:01.700Z,79.35
2022-11-04T10:41:07.071Z,79.00
2022-11-04T10:42:02.671Z,78.40
2022-11-04T10:43:01.662Z,78.50
2022-11-04T10:44:01.687Z,78.36
2022-11-04T10:45:01.640Z,77.04
2022-11-04T10:46:01.645Z,76.33
2022-11-04T10:47:01.632Z,77.14
2022-11-04T10:48:01.640Z,77.04
2022-11-04T10:49:01.593Z,77.48
2022-11-04T10:50:27.048Z,78.66
2022-11-04T10:51:02.593Z,77.51
2022-11-04T10:52:01.581Z,76.29
2022-11-04T10:53:01.578Z,77.07
2022-11-04T10:54:01.574Z,76.16
2022-11-04T10:55:01.550Z,75.62
2022-11-04T10:56:01.533Z,74.57
2022-11-04T10:57:01.545Z,74.47
2022-11-04T10:58:01.524Z,73.63
2022-11-04T10:59:01.482Z,74.95
2022-11-04T11:00:01.474Z,75.59
2022-11-04T11:01:01.524Z,75.65
2022-11-04T11:02:01.479Z,75.55
2022-11-04T11:03:01.433Z,74.44
2022-11-04T11:04:01.461Z,75.04
2022-11-04T11:05:01.412Z,73.63
2022-11-04T11:06:01.433Z,73.43
2022-11-04T11:07:01.395Z,73.83
2022-11-04T11:08:01.375Z,74.07
2022-11-04T11:09:01.363Z,74.77
2022-11-04T11:10:01.404Z,74.27
2022-11-04T11:11:01.359Z,74.68
2022-11-04T11:12:01.333Z,75.35
2022-11-04T11:13:01.333Z,74.17
2022-11-04T11:14:01.304Z,73.56
2022-11-04T11:15:01.294Z,73.76
2022-11-04T11:16:01.302Z,73.46
2022-11-04T11:17:01.298Z,73.97
2022-11-04T11:18:01.284Z,73.16
2022-11-04T11:19:01.260Z,73.29
2022-11-04T11:20:01.243Z,74.10
2022-11-04T11:21:01.257Z,73.39
2022-11-04T11:22:01.218Z,74.04
2022-11-04T11:23:05.470Z,74.51
2022-11-04T11:24:01.194Z,73.76
2022-11-04T11:25:01.183Z,73.22
2022-11-04T11:26:01.185Z,72.99
2022-11-04T11:27:01.183Z,72.38
2022-11-04T11:28:01.155Z,71.57
2022-11-04T11:29:01.169Z,71.84
2022-11-04T11:30:01.131Z,71.13
2022-11-04T11:31:01.115Z,71.33
2022-11-04T11:32:01.116Z,71.94
2022-11-04T11:33:01.124Z,72.14
2022-11-04T11:34:01.085Z,71.47
2022-11-04T11:35:01.092Z,71.67
2022-11-04T11:36:01.054Z,71.47
2022-11-04T11:37:01.052Z,72.14
2022-11-04T11:38:01.037Z,71.53
2022-11-04T11:39:01.037Z,71.03
2022-11-04T11:40:01.025Z,70.32
2022-11-04T11:41:23.952Z,70.12
2022-11-04T11:42:01.993Z,70.52
2022-11-04T11:43:00.995Z,70.29
2022-11-04T11:44:01.009Z,70.29
2022-11-04T11:45:00.958Z,70.36
2022-11-04T11:46:00.951Z,69.31
2022-11-04T11:47:00.934Z,69.24
2022-11-04T11:48:00.913Z,69.68
2022-11-04T11:49:00.911Z,70.79
2022-11-04T11:50:00.920Z,70.89
2022-11-04T11:51:00.885Z,70.05
2022-11-04T11:52:07.923Z,69.14
2022-11-04T11:53:00.862Z,69.24
2022-11-04T11:54:00.843Z,69.42
2022-11-04T11:55:00.863Z,69.31
2022-11-04T11:56:00.831Z,68.87
2022-11-04T11:57:13.643Z,68.98
2022-11-04T12:01:07.373Z,69.11
2022-11-04T12:02:01.897Z,68.57
2022-11-04T12:03:01.017Z,68.77
2022-11-04T12:06:17.935Z,68.94
2022-11-04T12:09:18.262Z,71.06
2022-11-04T12:10:01.671Z,71.94
2022-11-04T12:11:00.673Z,71.00
2022-11-04T12:12:00.637Z,70.69
2022-11-04T12:13:00.624Z,71.37
2022-11-04T12:14:00.624Z,70.09
2022-11-04T12:15:00.605Z,70.49
2022-11-04T12:16:00.594Z,70.73
2022-11-04T12:17:00.603Z,70.32
2022-11-04T12:18:00.564Z,70.96
2022-11-04T12:19:00.564Z,70.73
2022-11-04T12:20:00.543Z,70.76
2022-11-04T12:21:00.535Z,71.16
2022-11-04T12:22:00.522Z,71.26
2022-11-04T12:23:00.524Z,71.94
2022-11-04T12:24:00.497Z,71.50
2022-11-04T12:25:00.486Z,70.49
2022-11-04T12:26:00.478Z,69.18
2022-11-04T12:27:00.467Z,70.32
2022-11-04T12:28:00.473Z,69.71
2022-11-04T12:29:00.443Z,69.10
2022-11-04T12:30:00.434Z,69.65
2022-11-04T12:31:00.414Z,70.76
2022-11-04T12:32:00.404Z,70.65
2022-11-04T12:33:00.395Z,70.65
2022-11-04T12:34:00.395Z,70.62
2022-11-04T12:35:00.376Z,70.62
2022-11-04T12:36:00.355Z,70.32
2022-11-04T12:37:00.360Z,69.92
2022-11-04T12:38:00.335Z,70.12
2022-11-04T12:39:00.346Z,70.12
2022-11-04T12:40:00.314Z,70.02
2022-11-04T12:41:41.737Z,69.31
2022-11-04T12:42:19.991Z,69.65
2022-11-04T12:43:01.276Z,70.25
2022-11-04T12:44:00.267Z,69.65
2022-11-04T12:45:00.288Z,70.05
2022-11-04T12:46:00.246Z,69.95
2022-11-04T12:47:00.235Z,69.85
2022-11-04T12:48:00.225Z,69.54
2022-11-04T12:49:05.973Z,69.95
2022-11-04T12:50:01.216Z,70.02
2022-11-04T12:51:00.186Z,69.61
2022-11-04T12:52:00.178Z,69.51
2022-11-04T12:53:00.166Z,69.51
2022-11-04T12:54:00.154Z,69.81
2022-11-04T12:55:00.149Z,69.51
2022-11-04T12:56:00.158Z,69.01
2022-11-04T12:57:00.127Z,69.31
2022-11-04T12:58:00.108Z,69.81
2022-11-04T12:59:00.096Z,69.61
2022-11-04T13:00:00.095Z,68.97